createdAt,value
2022-10-01T00:04:00.167Z,4.50
2022-10-01T00:09:01.528Z,4.00
2022-10-01T00:14:02.427Z,5.00
2022-10-01T00:19:03.260Z,6.32
2022-10-01T00:24:06.541Z,5.03
2022-10-01T00:29:12.526Z,6.60
2022-10-01T00:34:14.726Z,4.18
2022-10-01T00:39:15.520Z,6.47
2022-10-01T00:44:36.700Z,8.48
2022-10-01T00:49:40.228Z,6.53
2022-10-01T00:54:54.897Z,3.53
2022-10-01T01:00:00.899Z,5.07
2022-10-01T01:05:02.606Z,4.95
2022-10-01T01:10:06.590Z,4.72
2022-10-01T01:15:52.927Z,5.30
2022-10-01T01:21:59.475Z,5.28
2022-10-01T01:27:18.521Z,6.22
2022-10-01T01:33:02.407Z,9.63
2022-10-01T01:38:13.403Z,6.18
2022-10-01T01:43:18.763Z,7.82
2022-10-01T01:48:23.410Z,8.15
2022-10-01T01:53:25.376Z,9.82
2022-10-01T01:58:27.456Z,7.75
2022-10-01T02:03:32.285Z,9.15
2022-10-01T02:09:07.350Z,5.43
2022-10-01T02:16:03.675Z,6.70
2022-10-01T02:21:39.278Z,6.68
2022-10-01T02:26:43.521Z,6.60
2022-10-01T02:31:46.882Z,9.50
2022-10-01T02:41:51.292Z,10.15
2022-10-01T02:47:53.364Z,10.80
2022-10-01T02:53:06.407Z,10.00
2022-10-01T02:58:08.025Z,8.35
2022-10-01T03:03:08.814Z,6.20
2022-10-01T03:08:09.593Z,7.60
2022-10-01T03:13:10.407Z,8.75
2022-10-01T03:18:11.142Z,7.78
2022-10-01T03:23:12.200Z,5.68
2022-10-01T03:28:12.991Z,8.20
2022-10-01T03:33:13.976Z,6.12
2022-10-01T03:38:14.704Z,6.85
2022-10-01T03:43:15.557Z,11.88
2022-10-01T03:48:17.496Z,10.77
2022-10-01T03:53:18.328Z,7.10
2022-10-01T03:58:19.688Z,11.15
2022-10-01T04:03:20.975Z,9.77
2022-10-01T04:08:24.536Z,11.55
2022-10-01T04:13:25.749Z,7.15
2022-10-01T04:18:26.531Z,13.23
2022-10-01T04:23:27.534Z,8.40
2022-10-01T04:28:29.395Z,7.60
2022-10-01T04:33:30.275Z,8.68
2022-10-01T04:38:31.110Z,7.53
2022-10-01T04:43:32.318Z,10.38
2022-10-01T04:48:33.220Z,9.90
2022-10-01T04:53:34.206Z,11.80
2022-10-01T04:58:35.033Z,8.40
2022-10-01T05:03:35.802Z,9.43
2022-10-01T05:08:37.247Z,7.78
2022-10-01T05:13:38.027Z,10.38
2022-10-01T05:18:39.776Z,10.60
2022-10-01T05:23:41.525Z,8.77
2022-10-01T05:28:43.818Z,6.47
2022-10-01T05:33:44.788Z,7.37
2022-10-01T05:38:47.824Z,8.38
2022-10-01T05:43:48.881Z,5.75
2022-10-01T05:48:50.615Z,6.90
2022-10-01T05:53:54.651Z,6.18
2022-10-01T05:58:55.788Z,5.37
2022-10-01T06:03:56.568Z,6.10
2022-10-01T06:08:58.546Z,7.93
2022-10-01T06:13:59.275Z,5.53
2022-10-01T06:19:00.678Z,4.60
2022-10-01T06:24:01.796Z,3.85
2022-10-01T06:29:02.773Z,2.97
2022-10-01T06:34:03.720Z,2.28
2022-10-01T06:39:04.574Z,2.35
2022-10-01T06:44:05.578Z,1.40
2022-10-01T06:49:06.349Z,4.20
2022-10-01T06:54:07.251Z,1.85
2022-10-01T06:59:07.971Z,1.90
2022-10-01T07:04:08.756Z,1.10
2022-10-01T07:09:09.509Z,6.45
2022-10-01T07:14:10.418Z,1.73
2022-10-01T07:19:11.231Z,4.00
2022-10-01T07:24:12.701Z,1.02
2022-10-01T07:29:13.430Z,1.25
2022-10-01T07:34:14.231Z,1.25
2022-10-01T07:39:15.002Z,1.30
2022-10-01T07:44:15.839Z,1.92
2022-10-01T07:49:16.553Z,1.80
2022-10-01T07:54:18.959Z,1.80
2022-10-01T07:59:19.774Z,2.08
2022-10-01T08:04:39.924Z,2.78
2022-10-01T08:09:40.870Z,1.35
2022-10-01T08:14:41.638Z,1.12
2022-10-01T08:19:42.374Z,2.62
2022-10-01T08:24:43.726Z,2.75
2022-10-01T08:29:44.506Z,2.60
2022-10-01T08:34:46.253Z,2.37
2022-10-01T08:39:46.984Z,1.65
2022-10-01T08:44:50.234Z,1.50
2022-10-01T08:49:55.795Z,1.83
2022-10-01T08:55:10.464Z,2.58
2022-10-01T09:00:14.500Z,1.62
2022-10-01T09:06:48.745Z,1.58
2022-10-01T09:12:14.070Z,2.60
2022-10-01T09:17:50.203Z,2.60
2022-10-01T09:23:19.461Z,3.05
2022-10-01T09:28:32.801Z,2.60
2022-10-01T09:33:40.824Z,2.05
2022-10-01T09:38:46.449Z,2.00
2022-10-01T09:43:47.339Z,3.42
2022-10-01T09:49:13.687Z,5.32
2022-10-01T09:54:35.338Z,1.70
2022-10-01T09:59:48.669Z,1.90
2022-10-01T10:05:50.495Z,2.78
2022-10-01T10:10:57.642Z,2.40
2022-10-01T10:15:59.666Z,3.42
2022-10-01T10:21:08.139Z,3.50
2022-10-01T10:26:18.650Z,2.67
2022-10-01T10:31:23.571Z,7.05
2022-10-01T10:36:29.043Z,2.05
2022-10-01T10:41:29.971Z,2.60
2022-10-01T10:46:34.453Z,5.40
2022-10-01T10:51:50.474Z,6.90
2022-10-01T10:57:01.503Z,4.57
2022-10-01T11:02:05.478Z,2.00
2022-10-01T11:07:08.005Z,4.72
2022-10-01T11:12:22.308Z,3.90
2022-10-01T11:19:02.068Z,2.37
2022-10-01T11:24:32.730Z,3.47
2022-10-01T11:31:31.308Z,4.90
2022-10-01T11:37:05.147Z,3.15
2022-10-01T11:42:21.475Z,4.50
2022-10-01T11:47:31.310Z,2.80
2022-10-01T11:52:38.773Z,4.47
2022-10-01T11:59:01.780Z,6.75
2022-10-01T12:04:45.173Z,3.90
2022-10-01T12:11:16.955Z,9.80
2022-10-01T12:17:45.653Z,2.87
2022-10-01T12:22:47.778Z,4.07
2022-10-01T12:28:11.786Z,10.38
2022-10-01T12:33:41.950Z,5.82
2022-10-01T12:39:19.792Z,7.72
2022-10-01T12:48:52.292Z,2.75
2022-10-01T12:57:10.379Z,11.52
2022-10-01T13:04:03.368Z,5.53
2022-10-01T13:09:15.721Z,7.78
2022-10-01T13:14:18.295Z,8.73
2022-10-01T13:19:27.404Z,5.25
2022-10-01T13:26:18.356Z,10.73
2022-10-01T13:31:19.548Z,7.82
2022-10-01T13:36:33.112Z,4.95
2022-10-01T13:41:35.343Z,3.62
2022-10-01T13:46:51.759Z,6.47
2022-10-01T13:51:53.625Z,3.50
2022-10-01T13:56:54.662Z,5.53
2022-10-01T14:01:55.516Z,11.73
2022-10-01T14:07:01.517Z,1.67
2022-10-01T14:13:08.501Z,14.40
2022-10-01T14:18:15.690Z,12.45
2022-10-01T14:23:23.742Z,14.18
2022-10-01T14:31:17.158Z,15.23
2022-10-01T14:36:31.768Z,10.13
2022-10-01T14:41:34.350Z,9.43
2022-10-01T14:46:35.399Z,13.27
2022-10-01T14:51:53.107Z,13.18
2022-10-01T14:56:54.942Z,8.38
2022-10-01T15:01:59.281Z,19.00
2022-10-01T15:07:11.842Z,6.22
2022-10-01T15:12:16.798Z,6.83
2022-10-01T15:17:22.801Z,6.50
2022-10-01T15:22:28.895Z,9.45
2022-10-01T15:27:30.401Z,13.45
2022-10-01T15:32:31.234Z,8.50
2022-10-01T15:37:36.605Z,11.05
2022-10-01T15:42:37.352Z,12.27
2022-10-01T15:47:51.063Z,8.68
2022-10-01T15:53:02.844Z,13.20
2022-10-01T15:58:54.472Z,10.93
2022-10-01T16:04:05.941Z,12.18
2022-10-01T16:09:22.895Z,7.07
2022-10-01T16:14:41.594Z,11.15
2022-10-01T16:19:56.007Z,9.70
2022-10-01T16:25:06.714Z,6.80
2022-10-01T16:30:22.719Z,9.98
2022-10-01T16:35:26.317Z,6.47
2022-10-01T16:40:32.308Z,11.60
2022-10-01T16:45:38.089Z,5.07
2022-10-01T16:50:41.039Z,10.10
2022-10-01T16:55:42.697Z,9.50
2022-10-01T17:00:43.641Z,11.88
2022-10-01T17:05:45.539Z,15.55
2022-10-01T17:10:56.135Z,20.27
2022-10-01T17:15:57.024Z,28.25
2022-10-01T17:20:58.786Z,18.50
2022-10-01T17:25:59.512Z,14.75
2022-10-01T17:31:05.802Z,18.50
2022-10-01T17:36:08.437Z,12.25
2022-10-01T17:41:09.222Z,10.25
2022-10-01T17:46:10.076Z,15.35
2022-10-01T17:51:13.789Z,21.62
2022-10-01T17:56:17.387Z,22.40
2022-10-01T18:01:21.319Z,11.52
2022-10-01T18:06:23.982Z,15.60
2022-10-01T18:11:27.242Z,5.57
2022-10-01T18:21:28.844Z,15.52
2022-10-01T18:26:29.594Z,20.05
2022-10-01T18:31:36.811Z,32.38
2022-10-01T18:36:54.199Z,17.77
2022-10-01T18:41:56.169Z,14.07
2022-10-01T18:47:27.070Z,10.77
2022-10-01T18:56:09.837Z,18.20
2022-10-01T19:01:36.434Z,10.80
2022-10-01T19:06:55.152Z,16.40
2022-10-01T19:12:13.618Z,17.00
2022-10-01T19:18:11.718Z,13.68
2022-10-01T19:30:21.728Z,10.70
2022-10-01T19:35:31.720Z,18.25
2022-10-01T19:40:39.873Z,18.33
2022-10-01T19:45:57.865Z,9.13
2022-10-01T19:51:07.119Z,11.70
2022-10-01T19:56:14.848Z,11.40
2022-10-01T20:01:20.434Z,11.32
2022-10-01T20:06:38.550Z,13.77
2022-10-01T20:12:39.015Z,8.18
2022-10-01T20:19:26.446Z,10.48
2022-10-01T20:25:49.936Z,14.48
2022-10-01T20:31:17.887Z,10.70
2022-10-01T20:36:34.984Z,12.02
2022-10-01T20:41:48.618Z,20.23
2022-10-01T20:47:05.932Z,20.70
2022-10-01T20:53:19.403Z,14.95
2022-10-01T20:58:27.121Z,14.75
2022-10-01T21:03:40.906Z,21.12
2022-10-01T21:08:56.999Z,20.75
2022-10-01T21:14:18.397Z,26.65
2022-10-01T21:21:22.550Z,42.20
2022-10-01T21:28:55.681Z,11.38
2022-10-01T21:36:04.603Z,26.60
2022-10-01T21:41:39.259Z,16.83
2022-10-01T21:46:54.596Z,18.67
2022-10-01T21:55:05.456Z,22.37
2022-10-01T22:00:22.268Z,22.15
2022-10-01T22:05:56.120Z,15.60
2022-10-01T22:11:03.269Z,23.75
2022-10-01T22:16:09.522Z,20.60
2022-10-01T22:21:13.636Z,21.65
2022-10-01T22:26:20.504Z,22.73
2022-10-01T22:31:26.622Z,26.52
2022-10-01T22:36:41.555Z,26.02
2022-10-01T22:41:55.516Z,24.65
2022-10-01T22:48:08.650Z,15.50
2022-10-01T22:55:06.713Z,19.60
2022-10-01T23:00:12.236Z,19.30
2022-10-01T23:06:43.418Z,23.35
2022-10-01T23:13:41.695Z,25.50
2022-10-01T23:20:32.696Z,22.17
2022-10-01T23:29:29.814Z,23.55
2022-10-01T23:35:20.736Z,27.45
2022-10-01T23:40:27.026Z,19.52
2022-10-01T23:45:40.921Z,24.08
2022-10-01T23:50:53.698Z,15.88
2022-10-01T23:56:49.304Z,17.95
